Friars Point, MS (38631)

7:47 PM CDT on July 11, 2014 (GMT -0500)
Fletcher (KCKM) Elev 174 ft | 34.30 °N, 90.51 °W | Change Station

Current weather conditions updated 12 minutes ago

Clear
Clear
82 °F
Feels Like 90 °F
N
0
Wind Variable Wind from North

Tomorrow is forecast to be Much Warmer than today.

Today
High -- | Low -- °F
--% Chance of Precip.
Yesterday
High -- | Low -- °F
Precip. -- in
5:59 AM 8:16 PM
Full, 100% visible
Pressure 30.12 in
Visibility 10.0 miles
Clouds Clear
Heat Index 90 °F
Dew Point 75 °F
Humidity 79%
Rainfall 0.04 in
Snow Depth Not available.
UV 0 out of 12
Pollen 3.20 out of 12
Air Quality Not available.
Flu Activity No Activity
METAR KCKM 120035Z AUTO 00000KT 10SM CLR 28/24 A3012 RMK AO1

More Conditions Fewer Conditions

Pressure 30.12 in
Visibility 10.0 miles
Clouds Clear
Heat Index 90 °F
Dew Point 75 °F
Humidity 79%
Rainfall 0.04 in
Snow Depth Not available.
UV 0 out of 12
Pollen 3.20 out of 12
Air Quality Not available.
Flu Activity No Activity
METAR KCKM 120035Z AUTO 00000KT 10SM CLR 28/24 A3012 RMK AO1

More Conditions Fewer Conditions

10-Day Weather Forecast

Almanac

Astronomy

Jul. 11, 2014 Rise Set
Actual Time 5:59 AM CDT 8:16 PM CDT
Civil Twilight 5:30 AM CDT 8:45 PM CDT
Nautical Twilight 4:54 AM CDT 9:20 PM CDT
Astronomical Twilight 4:16 AM CDT 9:59 PM CDT
Moon 7:30 PM CDT (7/11) 5:08 AM CDT (7/11)
Length of Visible Light 15h 15m
Length of Day
14h 17m
Tomorrow will be 0m 56s shorter.
Full, 100% of the Moon is Illuminated
Today
Full
Jul 12
Full
Jul 18
Last Quarter
Jul 26
New
Aug 3
First Quarter

Today's Extremes

State Highs State Lows

Community

WunderPhotos

Upload Photos

1,732,608 photos uploaded!

WunderBlogs® & News

Nearby

Snow Depth

Station Depth Elevation
No new snow has been reported.

Earthquake Activity

City Distance Mag. Time & Date
No recent earthquake activity has been reported nearby.
Minimum magnitude displayed is 2.5.

Coastal Water Temperatures

Place Temperature
No Stations Reporting

Nearby Weather Stations

Station Location Temp. Heat Index Dew Point Humidity Wind Precip. Elev Updated Type
Clarksdale, Clarksdale, MS 85.6 °F 96 °F 76 °F 74% ENE  at  0.0 mph 0.00 in / hr 164 ft 7:47 PM CDT Rapid Fire

Show More Stations Show Fewer Stations